Flight Track Log - Related Links

Times and Time Zones

All times are in EDT time to prevent confusion due to time zone crossing. See the UAL1202 flight status page for this flight to view local times or setup timezone preferences in your user account.

Time Position Orientation Groundspeed Altitude Reporting Facility
EDT Latitude Longitude Course Direction KTS MPH feet Rate Location/Type
Wed 10:16:53 AM 45.5800 -122.5603 113° Southeast 168 193 700  Level Seattle Center
Wed 10:17:30 AM 45.5744 -122.5225 102° East 187 215 1,600 1,918 Climbing Seattle Center
Wed 10:18:30 AM 45.5606 -122.4325 102° East 229 264 3,800 1,840 Climbing Seattle Center
Wed 10:18:45 AM 45.5622 -122.4278 63° Northeast 206 237 3,900 2,066 Climbing Seattle Center
Wed 10:19:00 AM 45.4758 -122.0822 145° Southeast  Level Estimated
Wed 10:19:31 AM 45.5261 -122.3481 123° Southeast 272 313 5,900  Level Seattle Center
Wed 10:19:46 AM 45.5244 -122.3414 110° East 249 287 6,100 2,526 Climbing Seattle Center
Wed 10:20:00 AM 45.4376 -121.9111 108° East  Level Estimated
Wed 10:20:47 AM 45.4689 -122.2675 137° Southeast 270 311 9,100  Level Seattle Center
Wed 10:21:00 AM 45.3447 -121.7900 137° Southeast  Level FlightAware Approximate
Wed 10:21:48 AM 45.4097 -122.1861 136° Southeast 290 334 10,600  Level Seattle Center
Wed 10:22:00 AM 45.3066 -121.6193 113° Southeast  Level Estimated
Wed 10:22:48 AM 45.3283 -122.0769 137° Southeast 331 381 13,400  Level Seattle Center
Wed 10:23:49 AM 45.2586 -121.9786 135° Southeast 350 403 15,800 2,213 Climbing Seattle Center
Wed 10:24:50 AM 45.2194 -121.8450 113° Southeast 377 434 17,900 2,016 Climbing Seattle Center
Wed 10:25:51 AM 45.1842 -121.7011 109° East 385 443 19,900 2,016 Climbing Seattle Center
Wed 10:26:52 AM 45.1442 -121.5508 111° Southeast 402 463 22,000 1,620 Climbing Seattle Center
Wed 10:32:57 AM 44.8760 -120.5380 111° Southeast 474 545 31,400 1,556 Climbing FlightAware ADS-B
Wed 10:33:37 AM 44.8430 -120.4170 111° Southeast 468 539 32,500 1,500 Climbing FlightAware ADS-B
Wed 10:34:13 AM 44.8150 -120.3140 111° Southeast 468 539 33,300 1,200 Climbing FlightAware ADS-B
Wed 10:34:47 AM 44.7890 -120.2190 111° Southeast 470 541 33,900 818 Climbing FlightAware ADS-B
Wed 10:35:19 AM 44.7640 -120.1280 111° Southeast 474 545 34,200 706 Climbing FlightAware ADS-B
Wed 10:35:55 AM 44.7350 -120.0240 111° Southeast 478 550 34,700 833 Climbing FlightAware ADS-B
Wed 10:36:31 AM 44.7060 -119.9180 111° Southeast 481 554 35,200 833 Climbing FlightAware ADS-B
Wed 10:37:07 AM 44.6770 -119.8140 111° Southeast 482 555 35,700 833 Climbing FlightAware ADS-B
Wed 10:37:43 AM 44.6480 -119.7100 111° Southeast 482 555 36,200 882 Climbing FlightAware ADS-B
Wed 10:38:15 AM 44.6210 -119.6160 112° Southeast 478 550 36,700 706 Climbing FlightAware ADS-B
Wed 10:38:51 AM 44.5910 -119.5130 112° Southeast 479 551 37,000 209 Climbing FlightAware ADS-B
Wed 10:39:41 AM 44.5520 -119.3800 112° Southeast 480 552 37,000  Level FlightAware ADS-B
Wed 10:40:17 AM 44.5180 -119.2670 113° Southeast 482 555 37,000  Level FlightAware ADS-B
Wed 10:40:49 AM 44.4910 -119.1740 112° Southeast 482 555 37,000  Level FlightAware ADS-B
Wed 10:41:22 AM 44.4620 -119.0780 113° Southeast 480 552 37,000  Level FlightAware ADS-B
Wed 10:42:01 AM 44.4310 -118.9720 112° Southeast 479 551 37,000  Level FlightAware ADS-B
Wed 10:42:36 AM 44.3990 -118.8680 113° Southeast 478 550 37,000  Level FlightAware ADS-B
Wed 10:43:10 AM 44.3700 -118.7720 113° Southeast 477 549 37,000  Level FlightAware ADS-B
Wed 10:43:46 AM 44.3390 -118.6690 113° Southeast 475 547 37,000  Level FlightAware ADS-B
Wed 10:44:20 AM 44.3100 -118.5740 113° Southeast 476 548 37,000  Level FlightAware ADS-B
Wed 10:44:57 AM 44.2790 -118.4710 113° Southeast 476 548 37,000  Level FlightAware ADS-B
Wed 10:45:30 AM 44.2510 -118.3780 113° Southeast 478 550 37,000  Level FlightAware ADS-B
Wed 10:46:06 AM 44.2190 -118.2750 113° Southeast 479 551 37,000  Level FlightAware ADS-B
Wed 10:46:42 AM 44.1870 -118.1730 114° Southeast 479 551 37,000  Level FlightAware ADS-B
Wed 10:47:15 AM 44.1590 -118.0810 113° Southeast 478 550 37,000  Level FlightAware ADS-B
Wed 10:47:48 AM 44.1300 -117.9860 113° Southeast 475 547 37,000  Level FlightAware ADS-B
Wed 10:48:25 AM 44.0990 -117.8850 113° Southeast 474 545 37,000  Level FlightAware ADS-B
Wed 10:49:00 AM 44.0690 -117.7910 114° Southeast 474 545 37,000  Level FlightAware ADS-B
Wed 10:49:34 AM 44.0370 -117.6910 114° Southeast 474 545 37,000  Level FlightAware ADS-B
Wed 10:50:14 AM 44.0080 -117.5950 113° Southeast 474 545 37,000  Level FlightAware ADS-B
Wed 10:50:45 AM 43.9750 -117.4940 114° Southeast 477 549 37,000  Level FlightAware ADS-B
Wed 10:51:20 AM 43.9440 -117.3950 113° Southeast 477 549 37,000  Level FlightAware ADS-B
Wed 10:51:52 AM 43.9150 -117.3050 114° Southeast 477 549 37,000  Level FlightAware ADS-B
Wed 10:52:30 AM 43.8820 -117.2010 114° Southeast 479 551 37,000  Level FlightAware ADS-B
Wed 10:53:07 AM 43.8490 -117.0970 114° Southeast 480 552 37,000  Level FlightAware ADS-B
Wed 10:53:42 AM 43.8170 -116.9970 114° Southeast 481 554 37,000  Level FlightAware ADS-B
Wed 10:54:13 AM 43.7890 -116.9110 114° Southeast 481 554 37,000  Level FlightAware ADS-B
Wed 10:54:52 AM 43.7530 -116.8010 114° Southeast 480 552 37,000  Level FlightAware ADS-B
Wed 10:55:26 AM 43.7220 -116.7070 115° Southeast 480 552 37,000  Level FlightAware ADS-B
Wed 10:55:54 AM 43.6970 -116.6280 114° Southeast 480 552 37,000  Level FlightAware ADS-B
Wed 10:56:34 AM 43.6600 -116.5160 115° Southeast 479 551 37,000  Level FlightAware ADS-B
Wed 10:57:10 AM 43.6270 -116.4160 114° Southeast 479 551 37,000  Level FlightAware ADS-B
Wed 10:57:44 AM 43.5960 -116.3220 114° Southeast 479 551 37,000  Level FlightAware ADS-B
Wed 10:58:22 AM 43.5610 -116.2150 114° Southeast 482 555 37,000  Level FlightAware ADS-B
Wed 10:58:53 AM 43.5410 -116.1260 107° East 498 573 37,000  Level FlightAware ADS-B
Wed 10:59:32 AM 43.5200 -116.0040 103° East 498 573 37,000  Level FlightAware ADS-B
Wed 11:00:04 AM 43.5020 -115.9040 104° East 498 573 37,000  Level FlightAware ADS-B
Wed 11:00:40 AM 43.4820 -115.7940 104° East 498 573 37,000  Level FlightAware ADS-B
Wed 11:01:16 AM 43.4620 -115.6830 104° East 497 572 37,000  Level FlightAware ADS-B
Wed 11:01:52 AM 43.4420 -115.5730 104° East 497 572 37,000  Level FlightAware ADS-B
Wed 11:02:24 AM 43.4250 -115.4750 103° East 496 571 37,000  Level FlightAware ADS-B
Wed 11:03:02 AM 43.4030 -115.3590 105° East 496 571 37,000  Level FlightAware ADS-B
Wed 11:03:36 AM 43.3840 -115.2570 104° East 496 571 37,000  Level FlightAware ADS-B
Wed 11:04:10 AM 43.3650 -115.1530 104° East 496 571 37,000  Level FlightAware ADS-B
Wed 11:04:46 AM 43.3450 -115.0420 104° East 496 571 37,000  Level FlightAware ADS-B
Wed 11:05:19 AM 43.3270 -114.9450 104° East 496 571 37,000  Level FlightAware ADS-B
Wed 11:05:57 AM 43.3050 -114.8280 104° East 496 571 37,000  Level FlightAware ADS-B
Wed 11:06:33 AM 43.2840 -114.7220 105° East 496 571 37,000  Level FlightAware ADS-B
Wed 11:07:05 AM 43.2650 -114.6200 104° East 497 572 37,000  Level FlightAware ADS-B
Wed 11:07:41 AM 43.2440 -114.5090 105° East 497 572 37,000  Level FlightAware ADS-B
Wed 11:08:06 AM 43.2292 -114.4330 105° East 497 572 37,000  Level FlightAware ADS-B
Wed 11:08:50 AM 43.2040 -114.3020 105° East 497 572 37,000  Level FlightAware ADS-B
Wed 11:09:29 AM 43.1815 -114.1872 105° East 496 571 37,000  Level FlightAware ADS-B
Wed 11:10:32 AM 43.1430 -113.9900 105° East 495 570 37,000  Level FlightAware ADS-B
Wed 11:11:06 AM 43.1240 -113.8930 105° East 494 568 37,000  Level FlightAware ADS-B
Wed 11:11:39 AM 43.1028 -113.7880 105° East 493 567 37,000  Level FlightAware ADS-B
Wed 11:12:21 AM 43.0780 -113.6630 105° East 493 567 37,000  Level FlightAware ADS-B
Wed 11:12:32 AM 43.0711 -113.6290 106° East 493 567 37,000  Level FlightAware ADS-B
Wed 11:13:20 AM 43.0426 -113.4880 105° East 492 566 37,000  Level FlightAware ADS-B
Wed 11:14:03 AM 43.0163 -113.3580 105° East 491 565 37,000  Level FlightAware ADS-B
Wed 11:14:37 AM 42.9957 -113.2560 105° East 492 566 37,000  Level FlightAware ADS-B
Wed 11:15:08 AM 42.9771 -113.1650 106° East 491 565 37,000  Level FlightAware ADS-B
Wed 11:15:30 AM 42.9645 -113.1039 106° East 491 565 37,000  Level FlightAware ADS-B
Wed 11:15:38 AM 42.9585 -113.0750 106° East 491 565 37,000  Level FlightAware ADS-B
Wed 11:16:06 AM 42.9418 -112.9944 106° East 492 566 37,000  Level FlightAware ADS-B
Wed 11:16:08 AM 42.9397 -112.9840 105° East 492 566 37,000  Level FlightAware ADS-B
Wed 11:16:41 AM 42.9196 -112.8870 106° East 492 566 37,000  Level FlightAware ADS-B
Wed 11:17:11 AM 42.9008 -112.7980 106° East 491 565 37,000  Level FlightAware ADS-B
Wed 11:17:47 AM 42.8788 -112.6930 106° East 491 565 37,000  Level FlightAware ADS-B
Wed 11:18:17 AM 42.8553 -112.6050 110° East 482 555 37,000  Level FlightAware ADS-B
Wed 11:19:04 AM 42.8170 -112.4850 113° Southeast 481 554 37,000  Level FlightAware ADS-B
Wed 11:19:43 AM 42.7810 -112.3720 113° Southeast 480 552 37,000  Level FlightAware ADS-B
Wed 11:20:23 AM 42.7450 -112.2600 114° Southeast 478 550 37,000  Level FlightAware ADS-B
Wed 11:20:58 AM 42.7131 -112.1610 114° Southeast 478 550 37,000  Level FlightAware ADS-B
Wed 11:21:30 AM 42.6845 -112.0720 114° Southeast 477 549 37,000  Level FlightAware ADS-B
Wed 11:22:10 AM 42.6493 -111.9640 114° Southeast 477 549 37,000  Level FlightAware ADS-B
Wed 11:22:40 AM 42.6226 -111.8820 114° Southeast 477 549 37,000  Level FlightAware ADS-B
Wed 11:23:31 AM 42.5770 -111.7420 114° Southeast 477 549 37,000  Level FlightAware ADS-B
Wed 11:24:01 AM 42.5501 -111.6610 114° Southeast 478 550 37,000  Level FlightAware ADS-B
Wed 11:24:32 AM 42.5230 -111.5780 114° Southeast 477 549 37,000  Level FlightAware ADS-B
Wed 11:25:03 AM 42.4948 -111.4930 114° Southeast 477 549 37,000  Level FlightAware ADS-B
Wed 11:25:54 AM 42.4490 -111.3540 114° Southeast 477 549 37,000  Level FlightAware ADS-B
Wed 11:26:28 AM 42.4180 -111.2620 115° Southeast 477 549 37,000  Level FlightAware ADS-B
Wed 11:27:02 AM 42.3870 -111.1690 114° Southeast 476 548 37,000  Level FlightAware ADS-B
Wed 11:27:36 AM 42.3570 -111.0790 114° Southeast 475 547 37,000  Level FlightAware ADS-B
Wed 11:28:11 AM 42.3300 -111.0000 115° Southeast 475 547 37,000  Level FlightAware ADS-B
Wed 11:28:47 AM 42.2930 -110.8880 114° Southeast 475 547 37,000  Level FlightAware ADS-B
Wed 11:29:45 AM 42.2440 -110.7420 114° Southeast 474 545 37,000  Level FlightAware ADS-B
Wed 11:30:30 AM 42.2220 -110.6770 115° Southeast 475 547 37,000  Level FlightAware ADS-B
Wed 11:31:06 AM 42.1940 -110.5940 114° Southeast 475 547 37,000  Level FlightAware ADS-B
Wed 11:31:40 AM 42.1680 -110.5160 114° Southeast 475 547 37,000  Level FlightAware ADS-B
Wed 11:32:26 AM 42.1330 -110.4100 114° Southeast 475 547 37,000  Level FlightAware ADS-B
Wed 11:33:02 AM 42.1060 -110.3270 114° Southeast 475 547 37,000  Level FlightAware ADS-B
Wed 11:33:39 AM 42.0780 -110.2420 114° Southeast 475 547 37,000  Level FlightAware ADS-B
Wed 11:34:15 AM 42.0510 -110.1590 114° Southeast 475 547 37,000  Level FlightAware ADS-B
Wed 11:34:52 AM 42.0230 -110.0740 114° Southeast 475 547 37,000  Level FlightAware ADS-B
Wed 11:35:28 AM 41.9950 -109.9920 115° Southeast 475 547 37,000  Level FlightAware ADS-B
Wed 11:36:04 AM 41.9680 -109.9090 114° Southeast 475 547 37,000  Level FlightAware ADS-B
Wed 11:36:40 AM 41.9400 -109.8260 114° Southeast 475 547 37,000  Level FlightAware ADS-B
Wed 11:37:19 AM 41.8150 -109.5100 118° Southeast 477 549 37,000  Level FlightAware ADS-B
Wed 11:37:55 AM 41.7820 -109.4180 116° Southeast 476 548 37,000  Level FlightAware ADS-B
Wed 11:38:29 AM 41.7490 -109.3260 116° Southeast 476 548 37,000  Level FlightAware ADS-B
Wed 11:39:04 AM 41.7150 -109.2310 116° Southeast 476 548 37,000  Level FlightAware ADS-B
Wed 11:39:37 AM 41.6840 -109.1440 115° Southeast 475 547 37,000  Level FlightAware ADS-B
Wed 11:40:15 AM 41.6500 -109.0510 116° Southeast 474 545 37,000  Level FlightAware ADS-B
Wed 11:40:46 AM 41.6180 -108.9630 116° Southeast 473 544 37,000  Level FlightAware ADS-B
Wed 11:41:23 AM 41.5830 -108.8660 116° Southeast 472 543 37,000  Level FlightAware ADS-B
Wed 11:41:59 AM 41.5490 -108.7720 116° Southeast 471 542 37,000  Level FlightAware ADS-B
Wed 11:42:35 AM 41.5160 -108.6800 116° Southeast 471 542 37,000  Level FlightAware ADS-B
Wed 11:43:07 AM 41.4850 -108.5970 116° Southeast 470 541 37,000  Level FlightAware ADS-B
Wed 11:43:43 AM 41.4510 -108.5040 116° Southeast 470 541 37,000  Level FlightAware ADS-B
Wed 11:44:19 AM 41.4150 -108.4080 117° Southeast 470 541 37,000  Level FlightAware ADS-B
Wed 11:44:52 AM 41.3810 -108.3230 118° Southeast 470 541 37,000  Level FlightAware ADS-B
Wed 11:45:29 AM 41.3440 -108.2280 117° Southeast 470 541 37,000  Level FlightAware ADS-B
Wed 11:46:05 AM 41.3090 -108.1370 117° Southeast 470 541 37,000  Level FlightAware ADS-B
Wed 11:46:38 AM 41.2760 -108.0510 117° Southeast 470 541 37,000  Level FlightAware ADS-B
Wed 11:47:10 AM 41.2440 -107.9700 118° Southeast 469 540 37,000  Level FlightAware ADS-B
Wed 11:47:49 AM 41.2060 -107.8730 117° Southeast 465 535 37,000  Level FlightAware ADS-B
Wed 11:48:24 AM 41.1710 -107.7840 118° Southeast 463 533 37,000  Level FlightAware ADS-B
Wed 11:48:58 AM 41.1370 -107.6970 117° Southeast 461 531 37,000  Level FlightAware ADS-B
Wed 11:49:36 AM 41.0990 -107.6020 118° Southeast 459 528 37,000  Level FlightAware ADS-B
Wed 11:50:07 AM 41.0690 -107.5270 118° Southeast 458 527 37,000  Level FlightAware ADS-B
Wed 11:50:45 AM 41.0320 -107.4310 117° Southeast 458 527 37,000  Level FlightAware ADS-B
Wed 11:51:20 AM 40.9970 -107.3440 118° Southeast 458 527 37,000  Level FlightAware ADS-B
Wed 11:51:53 AM 40.9650 -107.2640 118° Southeast 459 528 37,000 -348 Level FlightAware ADS-B
Wed 11:52:29 AM 40.9290 -107.1740 118° Southeast 461 531 36,600 -833 Descending FlightAware ADS-B
Wed 11:53:05 AM 40.8930 -107.0850 118° Southeast 465 535 36,000 -971 Descending FlightAware ADS-B
Wed 11:53:37 AM 40.8600 -107.0040 118° Southeast 468 539 35,500 -938 Descending FlightAware ADS-B
Wed 11:54:09 AM 40.8280 -106.9240 118° Southeast 472 543 35,000 -952 Descending FlightAware ADS-B
Wed 11:54:40 AM 40.7950 -106.8430 118° Southeast 472 543 34,500 -909 Descending FlightAware ADS-B
Wed 11:55:15 AM 40.7600 -106.7570 118° Southeast 470 541 34,000 -973 Descending FlightAware ADS-B
Wed 11:55:54 AM 40.7190 -106.6560 118° Southeast 471 542 33,300 -1,068 Descending FlightAware ADS-B
Wed 11:56:28 AM 40.6840 -106.5710 118° Southeast 473 544 32,700 -943 Descending FlightAware ADS-B
Wed 11:57:04 AM 40.6460 -106.4790 119° Southeast 471 542 32,200 -870 Descending FlightAware ADS-B
Wed 11:57:37 AM 40.6130 -106.3990 118° Southeast 472 543 31,700 -923 Descending FlightAware ADS-B
Wed 11:58:09 AM 40.5800 -106.3170 118° Southeast 472 543 31,200 -1,324 Descending FlightAware ADS-B
Wed 11:58:45 AM 40.5420 -106.2260 119° Southeast 469 540 30,200 -2,229 Descending FlightAware ADS-B
Wed 11:59:19 AM 40.5070 -106.1430 119° Southeast 469 540 28,600 -2,514 Descending FlightAware ADS-B
Wed 11:59:59 AM 40.4660 -106.0430 118° Southeast 461 531 27,100 -1,680 Descending FlightAware ADS-B
Wed 12:00:34 PM 40.4390 -105.9550 112° Southeast 434 499 26,500 -1,808 Descending FlightAware ADS-B
Wed 12:01:12 PM 40.4230 -105.8580 102° East 429 494 24,900 -2,526 Descending FlightAware ADS-B
Wed 12:01:50 PM 40.4080 -105.7630 102° East 418 481 23,300 -2,571 Descending FlightAware ADS-B
Wed 12:02:22 PM 40.3950 -105.6830 102° East 410 472 21,900 -2,206 Descending FlightAware ADS-B
Wed 12:02:58 PM 40.3820 -105.5980 101° East 394 453 20,800 -1,917 Descending FlightAware ADS-B
Wed 12:03:34 PM 40.3690 -105.5140 101° East 376 433 19,600 -2,118 Descending FlightAware ADS-B
Wed 12:03:49 PM 40.3630 -105.4850 105° East 374 430 19,000 -2,538 Descending FlightAware ADS-B
Wed 12:04:00 PM 40.3530 -105.4620 120° Southeast 369 425 18,500 -2,341 Descending FlightAware ADS-B
Wed 12:04:30 PM 40.3240 -105.4070 125° Southeast 368 423 17,400 -2,154 Descending FlightAware ADS-B
Wed 12:04:39 PM 40.3200 -105.3900 107° East 369 425 17,100 -1,667 Descending FlightAware ADS-B
Wed 12:04:48 PM 40.3180 -105.3690 97° East 367 422 16,900 -1,742 Descending FlightAware ADS-B
Wed 12:05:10 PM 40.3260 -105.3200 78° East 361 415 16,200 -1,900 Descending FlightAware ADS-B
Wed 12:05:48 PM 40.3480 -105.2440 69° East 352 405 15,000 -1,216 Descending FlightAware ADS-B
Wed 12:06:24 PM 40.3670 -105.1760 70° East 315 362 14,700 -667 Descending FlightAware ADS-B
Wed 12:07:00 PM 40.3860 -105.1150 68° East 288 331 14,200 -909 Descending FlightAware ADS-B
Wed 12:07:30 PM 40.4010 -105.0680 67° East 275 316 13,700 -1,200 Descending FlightAware ADS-B
Wed 12:07:55 PM 40.4110 -105.0300 71° East 269 310 13,100 -857 Descending FlightAware ADS-B
Wed 12:08:26 PM 40.4120 -104.9800 88° East 260 299 12,900 -174 Descending FlightAware ADS-B
Wed 12:09:04 PM 40.4130 -104.9190 89° East 262 302 12,900  Level FlightAware ADS-B
Wed 12:09:39 PM 40.4140 -104.8660 89° East 261 300 12,900  Level FlightAware ADS-B
Wed 12:10:19 PM 40.4030 -104.8080 104° East 251 289 12,900  Level FlightAware ADS-B
Wed 12:10:27 PM 40.3960 -104.8020 147° Southeast 250 288 12,900 -714 Level FlightAware ADS-B
Wed 12:11:01 PM 40.3600 -104.7800 155° Southeast 250 288 12,400 -989 Descending FlightAware ADS-B
Wed 12:11:58 PM 40.3020 -104.7450 155° Southeast 254 292 11,400 -947 Descending FlightAware ADS-B
Wed 12:12:36 PM 40.2580 -104.7180 155° Southeast 254 292 10,900 -429 Descending FlightAware ADS-B
Wed 12:13:08 PM 40.2250 -104.6970 154° Southeast 252 290 10,900 -808 Level FlightAware ADS-B
Wed 12:13:28 PM 40.2020 -104.6860 160° South 255 293 10,200 -1,688 Descending FlightAware ADS-B
Wed 12:13:40 PM 40.1880 -104.6840 174° South 257 296 10,000 -600 Descending FlightAware ADS-B
Wed 12:13:58 PM 40.1650 -104.6840 180° South 258 297 9,900 -188 Descending FlightAware ADS-B
Wed 12:14:12 PM 40.1490 -104.6840 180° South 259 298 9,900 -913 Level FlightAware ADS-B
Wed 12:14:44 PM 40.1120 -104.6840 180° South 253 291 9,200 -1,320 Descending FlightAware ADS-B
Wed 12:15:02 PM 40.0910 -104.6850 182° South 247 284 8,800 -1,171 Descending FlightAware ADS-B
Wed 12:15:25 PM 40.0660 -104.6850 180° South 239 275 8,400 -1,105 Descending FlightAware ADS-B
Wed 12:15:40 PM 40.0490 -104.6850 180° South 235 270 8,100 -1,355 Descending FlightAware ADS-B
Wed 12:15:56 PM 40.0320 -104.6850 180° South 232 267 7,700 -1,200 Descending FlightAware ADS-B
Wed 12:16:20 PM 40.0060 -104.6860 182° South 225 259 7,300 -1,143 Descending FlightAware ADS-B
Wed 12:16:38 PM 39.9880 -104.6860 180° South 220 253 6,900 -1,143 Descending FlightAware ADS-B
Wed 12:17:02 PM 39.9650 -104.6860 180° South 208 239 6,500 -1,043 Descending FlightAware ADS-B
Wed 12:17:24 PM 39.9440 -104.6860 180° South 188 216 6,100 -1,000 Descending FlightAware ADS-B
Wed 12:17:44 PM 39.9270 -104.6860 180° South 174 200 5,800 -732 Descending FlightAware ADS-B
Wed 12:18:05 PM 39.9110 -104.6870 183° South 172 198 5,600 -818 Descending FlightAware ADS-B
Wed 12:18:28 PM 39.8930 -104.6870 180° South 168 193 5,200 -1,043 Descending FlightAware ADS-B
Wed 12:18:48 PM 39.8800 -104.6870 180° South 100 115 -15,600 Descending FlightAware ADS-B

Login

Don't have an account? Register now (free) for customized features, flight alerts, and more!